• Join FlightAware (Why Join?)
  • Login
  • US Flag 
02:19AM EDT


 

Airport Tracker/Info


-or-


 

Live Flight TrackerFlight Track Log ✈ CTL22 ✈ 21-May-2013 ✈ KTEW - KGRR

Flight Track Log - Related Links

Times and Time Zones

All times are in EDT time to prevent confusion due to time zone crossing. See the CTL22 flight status page for this flight to view local times or setup timezone preferences in your user account.

Time Position Orientation Groundspeed Altitude Reporting Facility
EDT Latitude Longitude Course Direction KTS MPH feet Rate Location/Type
10:26PM 42.6431 -84.5183 290° West 153 176 6,000  Level Cleveland Center
10:27PM 42.6517 -84.5697 283° West 152 175 6,000  Level Cleveland Center
10:29PM 42.6668 -84.6316 290° West  Level Estimated
10:30PM 42.6432 -84.6981 290° West  Level FlightAware Approximate
10:31PM 42.6557 -84.7439 290° West  Level FlightAware Approximate
10:32PM 42.6680 -84.7898 290° West  Level FlightAware Approximate
10:33PM 42.7300 -84.8886 289° West 152 175 6,000  Level Cleveland Center
10:34PM 42.7442 -84.9544 286° West 152 175 6,000  Level Cleveland Center
10:35PM 42.7567 -85.0092 287° West 155 178 6,000  Level Cleveland Center
10:36PM 42.7222 -84.9655 283° West  Level FlightAware Approximate
10:36PM 42.7711 -85.0639 290° West 153 176 6,000  Level Cleveland Center
10:37PM 42.7300 -85.0132 283° West  Level FlightAware Approximate
10:38PM 42.7848 -85.1205 294° West  Level Estimated
10:38PM 42.7417 -85.0669 289° West  Level FlightAware Approximate
10:39PM 42.8119 -85.2125 294° West 175 201 4,200  Level Chicago Center
10:41PM 42.8292 -85.2924 286° West  Level FlightAware Approximate
10:48PM 42.8667 -85.5167 270° West  Level FlightAware Approximate
10:49PM 42.8808 -85.5228 270° West  Level Estimated
10:50PM 42.8808 -85.5228 270° West  Level Estimated
10:51PM 42.8808 -85.5228 270° West  Level Estimated
10:52PM 42.8808 -85.5228 270° West  Level Estimated
10:53PM 42.8808 -85.5228 270° West  Level Estimated